Time;durP1;ratioP1;P1;durP2;ratioP2;P2;SDS_P1;SDS_P2;PMS_P1;PMS_P2;Temp;Humidity;BMP_temperature;BMP_pressure;BME280_temperature;BME280_humidity;BME280_pressure;Samples;Min_cycle;Max_cycle;Signal;HPM_P1;HPM_P2
2024/04/12 00:01:37;;;;;;;12.10;6.80;;;;;;;-146.27;85.69;41462.50;5459678;26;20010;-71
2024/04/12 00:04:02;;;;;;;11.45;6.35;;;;;;;-146.27;86.48;41563.88;5448270;26;20040;-72
2024/04/12 00:06:30;;;;;;;11.65;6.72;;;;;;;-146.27;86.16;41530.09;5454996;26;20006;-71
2024/04/12 00:08:57;;;;;;;9.50;5.90;;;;;;;-146.27;86.40;41536.06;5453891;26;20350;-71
2024/04/12 00:11:23;;;;;;;12.07;6.82;;;;;;;-146.27;86.89;41510.22;5473384;26;20009;-71
2024/04/12 00:13:53;;;;;;;10.10;6.13;;;;;;;-146.27;86.97;41597.69;5450243;26;19995;-72
2024/04/12 00:16:26;;;;;;;13.20;6.55;;;;;;;-146.27;88.11;41605.66;5459053;26;19991;-72
2024/04/12 00:19:12;;;;;;;11.02;6.35;;;;;;;-146.27;86.62;41498.28;5451272;26;20022;-72
2024/04/12 00:21:38;;;;;;;9.98;6.25;;;;;;;-146.27;85.69;41444.59;5452411;26;20006;-71
2024/04/12 00:24:06;;;;;;;10.68;6.80;;;;;;;-146.27;86.12;41516.16;5469625;26;20002;-72
2024/04/12 00:26:31;;;;;;;10.85;6.20;;;;;;;-146.27;86.10;41555.94;5481952;26;20009;-71
2024/04/12 00:28:59;;;;;;;9.75;6.63;;;;;;;-146.27;85.99;41526.13;5456147;26;20549;-71
2024/04/12 00:31:26;;;;;;;10.68;6.43;;;;;;;-146.27;85.43;41466.47;5472261;26;20027;-72
2024/04/12 00:33:55;;;;;;;9.38;6.88;;;;;;;-146.27;86.21;41520.16;5476755;26;19998;-72
2024/04/12 00:36:24;;;;;;;10.98;7.45;;;;;;;-146.27;86.32;41468.44;5482980;26;20009;-72
2024/04/12 00:38:55;;;;;;;13.80;8.25;;;;;;;-146.27;85.80;41581.78;5470748;26;20067;-73
2024/04/12 00:41:20;;;;;;;13.40;8.68;;;;;;;-146.27;86.83;41553.94;5478313;26;20458;-72
2024/04/12 00:43:48;;;;;;;13.02;9.13;;;;;;;-146.27;85.93;41446.59;5455717;26;20005;-72
2024/04/12 00:46:24;;;;;;;13.25;8.60;;;;;;;-146.27;86.67;41508.22;5449633;26;19998;-71
2024/04/12 00:48:54;;;;;;;13.50;8.80;;;;;;;-146.27;86.17;41486.34;5454172;26;19990;-70
2024/04/12 00:51:27;;;;;;;12.32;9.00;;;;;;;-146.27;86.04;41502.25;5477377;26;20007;-72
2024/04/12 00:53:57;;;;;;;12.93;8.57;;;;;;;-146.27;85.52;41530.09;5463904;26;20013;-72
2024/04/12 00:56:30;;;;;;;13.65;9.25;;;;;;;-146.27;85.70;41496.28;5483440;26;20004;-72
2024/04/12 00:58:56;;;;;;;16.17;9.00;;;;;;;-146.27;85.85;41583.78;5457303;26;20456;-72
2024/04/12 01:01:22;;;;;;;14.05;8.50;;;;;;;-146.27;85.47;41490.31;5466781;26;19995;-72
2024/04/12 01:03:54;;;;;;;14.60;8.73;;;;;;;-146.27;84.96;41470.44;5482376;26;20001;-72
2024/04/12 01:06:25;;;;;;;14.23;9.32;;;;;;;-146.27;85.70;41508.22;5461685;26;19995;-72
2024/04/12 01:08:52;;;;;;;13.23;8.88;;;;;;;-146.27;85.86;41474.41;5450423;26;20005;-72
2024/04/12 01:11:21;;;;;;;18.65;9.75;;;;;;;-146.27;85.98;41534.06;5468055;26;20005;-70
2024/04/12 01:13:48;;;;;;;16.52;10.45;;;;;;;-146.27;86.56;41549.97;5453165;26;20066;-72
2024/04/12 01:16:14;;;;;;;15.57;9.75;;;;;;;-146.27;86.02;41484.34;5450694;26;20015;-72
2024/04/12 01:18:42;;;;;;;12.73;8.68;;;;;;;-146.27;86.19;41506.22;5460245;26;20458;-71
2024/04/12 01:21:11;;;;;;;13.77;9.45;;;;;;;-146.27;86.41;41547.97;5477044;26;20013;-72
2024/04/12 01:23:44;;;;;;;15.05;8.57;;;;;;;-146.27;86.29;41494.31;5473235;26;20030;-71
2024/04/12 01:26:15;;;;;;;14.90;9.00;;;;;;;-146.27;84.92;41442.59;5482020;26;19995;-71
2024/04/12 01:28:44;;;;;;;12.70;8.60;;;;;;;-146.27;85.32;41482.38;5480515;26;20002;-71
2024/04/12 01:31:15;;;;;;;12.52;8.20;;;;;;;-146.27;84.94;41516.16;5474097;26;20720;-70
2024/04/12 01:33:50;;;;;;;12.35;7.63;;;;;;;-146.27;84.95;41492.31;5453611;26;20461;-71
2024/04/12 01:36:21;;;;;;;11.32;7.88;;;;;;;-146.27;86.18;41569.84;5453185;26;20002;-71
2024/04/12 01:38:57;;;;;;;13.52;8.77;;;;;;;-146.27;85.72;41500.25;5458157;26;19995;-72
2024/04/12 01:41:27;;;;;;;12.75;7.95;;;;;;;-146.27;86.08;41518.16;5463438;25;20006;-71
2024/04/12 01:43:53;;;;;;;14.20;8.55;;;;;;;-146.27;85.69;41474.41;5454942;26;20005;-71
2024/04/12 01:46:27;;;;;;;12.02;8.07;;;;;;;-146.27;85.89;41544.00;5477824;26;20012;-71
2024/04/12 01:48:54;;;;;;;14.55;8.75;;;;;;;-146.27;85.89;41456.53;5449173;26;20063;-72
2024/04/12 01:51:22;;;;;;;14.32;8.90;;;;;;;-146.27;86.24;41456.53;5449912;26;20436;-72
2024/04/12 01:53:54;;;;;;;13.55;8.70;;;;;;;-146.27;86.78;41532.06;5475336;26;20477;-72
2024/04/12 01:56:21;;;;;;;13.23;8.23;;;;;;;-146.27;86.30;41466.47;5455124;26;20040;-71
2024/04/12 01:58:48;;;;;;;13.90;8.80;;;;;;;-146.27;85.82;41498.28;5462890;26;19995;-72
2024/04/12 02:01:16;;;;;;;13.48;8.77;;;;;;;-146.27;86.81;41538.03;5463183;26;20010;-71
2024/04/12 02:03:42;;;;;;;18.60;9.35;;;;;;;-146.27;86.28;41522.13;5460591;26;20026;-72
2024/04/12 02:06:08;;;;;;;12.90;8.18;;;;;;;-146.27;85.96;41486.34;5451339;26;20588;-72
2024/04/12 02:08:35;;;;;;;15.38;8.27;;;;;;;-146.27;86.62;41482.38;5471976;26;19998;-71
2024/04/12 02:11:05;;;;;;;15.52;8.82;;;;;;;-146.27;87.30;41532.06;5449135;26;20031;-71
2024/04/12 02:13:35;;;;;;;14.05;8.45;;;;;;;-146.27;86.54;41460.50;5460965;26;20477;-71
2024/04/12 02:16:01;;;;;;;16.98;9.00;;;;;;;-146.27;86.05;41486.34;5449425;26;20067;-71
2024/04/12 02:18:32;;;;;;;16.08;9.52;;;;;;;-146.27;87.04;41492.31;5448317;26;20003;-71
2024/04/12 02:21:04;;;;;;;18.88;10.30;;;;;;;-146.27;86.72;41464.47;5448735;26;20339;-72
2024/04/12 02:23:32;;;;;;;17.60;9.75;;;;;;;-146.27;86.18;41430.69;5450592;26;19999;-72
2024/04/12 02:25:58;;;;;;;16.75;10.15;;;;;;;-146.27;87.06;41474.41;5475431;26;19994;-72
2024/04/12 02:28:26;;;;;;;16.65;9.15;;;;;;;-146.27;88.13;41502.25;5465243;26;20005;-72
2024/04/12 02:31:00;;;;;;;19.67;10.25;;;;;;;-146.27;87.10;41410.78;5468648;26;20346;-71
2024/04/12 02:33:30;;;;;;;17.80;9.65;;;;;;;-146.27;87.18;41430.69;5472491;26;20002;-71
2024/04/12 02:35:59;;;;;;;20.60;10.63;;;;;;;-146.27;88.04;41478.41;5484186;26;20012;-71
2024/04/12 02:38:26;;;;;;;21.15;9.82;;;;;;;-146.27;88.51;41488.34;5456702;26;19991;-73
2024/04/12 02:40:52;;;;;;;21.13;9.77;;;;;;;-146.27;88.53;41384.94;5455382;26;20007;-73
2024/04/12 02:43:18;;;;;;;20.88;10.13;;;;;;;-146.27;88.89;41271.63;5448557;26;20039;-72
2024/04/12 02:45:47;;;;;;;15.90;8.80;;;;;;;-146.27;87.43;41339.22;5460803;26;20331;-72
2024/04/12 02:48:13;;;;;;;17.33;9.13;;;;;;;-146.27;87.47;41353.13;5448427;26;19999;-70
2024/04/12 02:50:39;;;;;;;21.65;10.10;;;;;;;-146.27;88.36;41347.16;5469183;26;20017;-72
2024/04/12 02:53:05;;;;;;;21.85;9.48;;;;;;;-146.27;88.17;41311.38;5452280;26;19995;-71
2024/04/12 02:55:30;;;;;;;15.88;8.85;;;;;;;-146.27;88.64;41319.34;5453090;26;20010;-72
2024/04/12 02:57:57;;;;;;;16.45;8.57;;;;;;;-146.27;88.41;41359.09;5466493;26;19990;-73
2024/04/12 03:00:23;;;;;;;18.08;8.30;;;;;;;-146.27;87.97;41271.63;5456676;26;20822;-72
2024/04/12 03:02:52;;;;;;;13.30;7.93;;;;;;;-146.27;89.04;41283.56;5449860;26;20003;-72
2024/04/12 03:05:19;;;;;;;17.02;8.57;;;;;;;-146.27;88.64;41343.19;5453427;26;20002;-73
2024/04/12 03:07:46;;;;;;;17.83;8.65;;;;;;;-146.27;88.46;41261.69;5448149;26;20354;-71
2024/04/12 03:10:23;;;;;;;16.05;9.13;;;;;;;-146.27;87.66;41263.66;5448034;26;19995;-71
2024/04/12 03:12:52;;;;;;;18.80;9.98;;;;;;;-146.27;87.36;41237.81;5447392;26;20059;-71
2024/04/12 03:15:21;;;;;;;14.15;9.00;;;;;;;-146.27;88.19;41247.75;5454029;26;20377;-72
2024/04/12 03:17:47;;;;;;;16.08;10.30;;;;;;;-146.27;88.97;41208.00;5454856;26;20063;-72
2024/04/12 03:20:18;;;;;;;15.13;9.50;;;;;;;-146.27;88.43;41217.94;5448331;26;19999;-71
2024/04/12 03:22:44;;;;;;;21.20;10.43;;;;;;;-146.27;87.74;41241.81;5450603;26;20007;-72
2024/04/12 03:25:10;;;;;;;16.10;10.52;;;;;;;-146.27;87.32;41229.88;5456703;26;20049;-72
2024/04/12 03:27:38;;;;;;;13.95;8.32;;;;;;;-146.27;88.76;41259.69;5455621;26;20473;-72
2024/04/12 03:30:13;;;;;;;12.90;8.80;;;;;;;-146.27;87.86;41295.47;5460044;26;20067;-72
2024/04/12 03:32:44;;;;;;;16.45;9.07;;;;;;;-146.27;87.40;41279.56;5454798;26;20010;-71
2024/04/12 03:35:13;;;;;;;15.35;8.35;;;;;;;-146.27;87.43;41331.25;5456392;26;19991;-71
2024/04/12 03:37:47;;;;;;;11.82;8.85;;;;;;;-146.27;87.90;41331.25;5456367;26;19991;-71
2024/04/12 03:40:17;;;;;;;12.25;7.93;;;;;;;-146.27;87.16;41343.19;5446849;26;20475;-72
2024/04/12 03:42:44;;;;;;;17.08;7.30;;;;;;;-146.27;88.40;41414.78;5447617;26;20006;-72
2024/04/12 03:45:15;;;;;;;13.35;6.88;;;;;;;-146.27;86.70;41359.09;5449564;26;19995;-72
2024/04/12 03:47:44;;;;;;;11.68;6.78;;;;;;;-146.27;86.42;41426.69;5450888;26;20002;-71
2024/04/12 03:50:13;;;;;;;13.25;7.22;;;;;;;-146.27;86.06;41420.72;5453305;26;19998;-72
2024/04/12 03:52:51;;;;;;;13.95;8.50;;;;;;;-146.27;86.26;41424.72;5451264;26;19995;-73
2024/04/12 03:55:18;;;;;;;7.85;5.80;;;;;;;-146.27;85.75;41422.72;5458135;26;20007;-72
2024/04/12 03:57:44;;;;;;;13.07;6.50;;;;;;;-146.27;86.41;41462.50;5456174;26;20013;-73
2024/04/12 04:00:11;;;;;;;10.07;6.63;;;;;;;-146.27;87.01;41446.59;5486598;26;20066;-66
2024/04/12 04:02:37;;;;;;;13.93;6.57;;;;;;;-146.27;87.06;41502.25;5486436;26;19994;-69
2024/04/12 04:05:15;;;;;;;9.55;6.28;;;;;;;-146.27;86.38;41470.44;5487867;26;19994;-69
2024/04/12 04:07:44;;;;;;;14.15;6.50;;;;;;;-146.27;85.56;41462.50;5465212;26;20457;-68
2024/04/12 04:10:13;;;;;;;14.23;7.07;;;;;;;-146.27;86.15;41530.09;5468226;26;20068;-68
2024/04/12 04:12:44;;;;;;;9.68;6.35;;;;;;;-146.27;86.27;41454.53;5452946;26;20335;-70
2024/04/12 04:15:11;;;;;;;11.18;6.32;;;;;;;-146.27;86.53;41474.41;5454661;26;20468;-66
2024/04/12 04:17:36;;;;;;;9.02;6.32;;;;;;;-146.27;87.17;41524.13;5479613;26;20013;-67
2024/04/12 04:20:06;;;;;;;12.77;6.55;;;;;;;-146.27;86.05;41396.88;5482501;26;20446;-68
2024/04/12 04:25:00;;;;;;;10.07;5.85;;;;;;;-146.27;86.00;41597.69;5467736;26;19999;-68
2024/04/12 04:27:25;;;;;;;9.57;5.55;;;;;;;-146.27;85.68;41436.63;5457904;26;20009;-67
2024/04/12 04:29:52;;;;;;;10.57;5.63;;;;;;;-146.27;85.06;41484.34;5468602;26;20349;-68
2024/04/12 04:32:26;;;;;;;10.30;5.90;;;;;;;-146.27;85.35;41538.03;5470585;26;19998;-66
2024/04/12 04:34:54;;;;;;;9.50;5.00;;;;;;;-146.27;85.13;41514.19;5472200;26;20006;-68
2024/04/12 04:37:20;;;;;;;7.63;5.60;;;;;;;-146.27;85.69;41528.09;5462941;26;20010;-67
2024/04/12 04:39:46;;;;;;;9.27;5.32;;;;;;;-146.27;85.31;41522.13;5454378;26;20040;-71
2024/04/12 04:42:13;;;;;;;10.30;5.38;;;;;;;-146.27;85.56;41637.47;5450146;26;20050;-69
2024/04/12 04:44:39;;;;;;;9.70;5.35;;;;;;;-146.27;85.45;41649.38;5450310;26;19999;-69
2024/04/12 04:47:05;;;;;;;9.30;4.95;;;;;;;-146.27;85.24;41633.47;5449256;26;19998;-71
2024/04/12 04:49:32;;;;;;;12.00;5.57;;;;;;;-146.27;84.76;41611.59;5481420;26;20539;-69
2024/04/12 04:51:57;;;;;;;9.50;5.95;;;;;;;-146.27;85.02;41685.19;5470885;26;19999;-68
2024/04/12 04:54:23;;;;;;;11.38;4.80;;;;;;;-146.27;84.91;41736.88;5450340;26;20500;-70
2024/04/12 04:56:49;;;;;;;14.70;5.50;;;;;;;-146.27;84.07;41697.09;5468170;26;20059;-68
2024/04/12 04:59:17;;;;;;;11.07;5.35;;;;;;;-146.27;83.79;41766.69;5454323;26;19995;-68
2024/04/12 05:01:49;;;;;;;12.10;5.60;;;;;;;-146.27;84.69;41864.13;5483653;26;20006;-68
2024/04/12 05:04:20;;;;;;;10.85;5.45;;;;;;;-146.27;83.96;41899.94;5481958;26;19998;-69
2024/04/12 05:06:47;;;;;;;8.25;4.88;;;;;;;-146.27;84.04;41955.59;5449681;26;20446;-70
2024/04/12 05:09:13;;;;;;;9.20;5.55;;;;;;;-146.27;85.10;41979.47;5452762;26;20685;-73
2024/04/12 05:11:38;;;;;;;12.90;5.68;;;;;;;-146.27;84.63;42017.25;5457375;26;20010;-71
2024/04/12 05:14:14;;;;;;;11.38;4.78;;;;;;;-146.27;84.45;42059.00;5461970;26;20565;-73
2024/04/12 05:16:43;;;;;;;9.32;5.88;;;;;;;-146.27;85.37;42096.78;5462306;26;20472;-73
2024/04/12 05:19:09;;;;;;;14.32;6.30;;;;;;;-146.27;85.00;42146.50;5475316;26;20002;-71
2024/04/12 05:21:40;;;;;;;14.40;5.85;;;;;;;-146.27;84.38;42208.16;5478757;26;20518;-72
2024/04/12 05:24:09;;;;;;;11.70;5.47;;;;;;;-146.27;85.39;42311.56;5472886;26;19994;-71
2024/04/12 05:26:36;;;;;;;12.48;5.53;;;;;;;-146.27;85.39;42385.13;5467229;26;20564;-72
2024/04/12 05:29:05;;;;;;;13.82;6.07;;;;;;;-146.27;84.34;42391.09;5464794;26;20535;-72
2024/04/12 05:31:31;;;;;;;14.10;5.47;;;;;;;-146.27;85.21;42456.72;5465542;26;20007;-72
2024/04/12 05:34:00;;;;;;;9.90;5.70;;;;;;;-146.27;85.22;42514.41;5470876;26;20016;-73
2024/04/12 05:36:26;;;;;;;14.80;5.68;;;;;;;-146.27;85.26;42466.69;5470297;26;20033;-71
2024/04/12 05:38:52;;;;;;;10.60;5.47;;;;;;;-146.27;84.82;42562.13;5480616;26;19998;-73
2024/04/12 05:41:19;;;;;;;11.73;5.57;;;;;;;-146.27;84.52;42526.34;5456275;26;20063;-73
2024/04/12 05:43:45;;;;;;;16.73;6.32;;;;;;;-146.27;83.99;42637.72;5452273;26;20003;-72
2024/04/12 05:46:11;;;;;;;12.60;5.60;;;;;;;-146.27;83.99;42595.94;5478613;26;20009;-74
2024/04/12 05:48:37;;;;;;;16.73;6.32;;;;;;;-146.27;85.12;42643.69;5454072;26;19998;-72
2024/04/12 05:51:02;;;;;;;12.40;5.90;;;;;;;-146.27;84.99;42595.94;5452717;26;20449;-71
2024/04/12 05:53:30;;;;;;;12.60;5.53;;;;;;;-146.27;83.40;42548.22;5474681;26;20012;-72
2024/04/12 05:58:41;;;;;;;15.25;5.35;;;;;;;-146.27;82.90;42548.22;5474323;26;20006;-71
2024/04/12 06:01:10;;;;;;;10.43;5.40;;;;;;;-146.27;83.51;42647.66;5451869;26;19995;-73
2024/04/12 06:03:48;;;;;;;16.42;7.00;;;;;;;-146.27;83.31;42607.88;5461531;26;19995;-71
2024/04/12 06:06:14;;;;;;;12.40;5.90;;;;;;;-146.27;83.21;42623.78;5464874;26;20071;-71
2024/04/12 06:08:47;;;;;;;12.48;6.78;;;;;;;-146.27;83.91;42667.53;5465240;26;20420;-72
2024/04/12 06:11:13;;;;;;;11.65;5.50;;;;;;;-146.27;82.98;42615.84;5461559;26;20038;-73
2024/04/12 06:13:39;;;;;;;13.77;5.60;;;;;;;-146.27;82.07;42667.53;5449713;26;20037;-72
2024/04/12 06:16:04;;;;;;;9.32;5.63;;;;;;;-146.27;82.16;42669.53;5462604;26;20071;-71
2024/04/12 06:18:30;;;;;;;16.02;5.90;;;;;;;-146.27;82.65;42719.25;5468001;26;20418;-68
2024/04/12 06:20:55;;;;;;;10.75;5.53;;;;;;;-146.27;81.60;42767.00;5470363;26;20006;-68
2024/04/12 06:23:22;;;;;;;10.90;5.72;;;;;;;-146.27;81.40;42689.41;5459345;26;20002;-69
2024/04/12 06:25:49;;;;;;;12.23;5.60;;;;;;;-146.27;81.23;42749.09;5460728;26;19998;-69
2024/04/12 06:28:15;;;;;;;11.70;6.03;;;;;;;-146.27;80.78;42759.03;5462821;26;20002;-68
2024/04/12 06:30:49;;;;;;;8.45;5.10;;;;;;;-146.27;81.01;42806.75;5449336;26;20035;-69
2024/04/12 06:33:20;;;;;;;12.10;5.65;;;;;;;-146.27;80.39;42776.94;5458432;26;20011;-68
2024/04/12 06:35:46;;;;;;;13.25;5.47;;;;;;;-146.27;81.06;42816.72;5471635;26;20014;-67
2024/04/12 06:38:21;;;;;;;12.60;5.93;;;;;;;-146.27;80.12;42812.72;5467454;26;20010;-68
2024/04/12 06:40:53;;;;;;;10.75;6.20;;;;;;;-146.27;80.36;42880.34;5480564;26;20556;-67
2024/04/12 06:43:20;;;;;;;11.95;6.00;;;;;;;-146.27;80.11;42882.34;5484444;26;20013;-67
2024/04/12 06:45:56;;;;;;;12.02;5.28;;;;;;;-146.27;79.63;42838.59;5456587;26;20067;-68
2024/04/12 06:48:26;;;;;;;11.50;5.78;;;;;;;-146.27;80.12;42830.63;5452942;26;20002;-68
2024/04/12 06:51:00;;;;;;;12.65;5.53;;;;;;;-146.27;79.96;42862.47;5484332;26;19990;-69
2024/04/12 06:53:25;;;;;;;8.85;5.25;;;;;;;-146.27;78.79;42838.59;5471594;26;20030;-67
2024/04/12 06:55:55;;;;;;;12.65;6.47;;;;;;;-146.27;79.56;42942.00;5484860;26;20074;-69
2024/04/12 06:58:21;;;;;;;10.07;5.00;;;;;;;-146.27;79.28;42904.22;5468247;26;20083;-67
2024/04/12 07:00:56;;;;;;;10.85;4.95;;;;;;;-146.27;79.27;42973.84;5449410;26;20095;-67
2024/04/12 07:03:22;;;;;;;8.77;4.57;;;;;;;-146.27;79.00;42946.00;5446803;26;20003;-67
2024/04/12 07:05:53;;;;;;;13.88;5.15;;;;;;;-146.27;78.34;42870.41;5448444;26;20009;-66
2024/04/12 07:08:21;;;;;;;12.70;4.47;;;;;;;-146.27;77.57;42906.22;5479847;26;20002;-66
2024/04/12 07:10:50;;;;;;;9.25;4.53;;;;;;;-146.27;77.92;43079.25;5483830;26;20022;-65
2024/04/12 07:13:16;;;;;;;9.88;3.85;;;;;;;-146.27;76.77;42983.78;5483447;26;20013;-67
2024/04/12 07:15:46;;;;;;;15.43;5.95;;;;;;;-146.27;76.25;43021.56;5485080;26;19998;-68
2024/04/12 07:18:11;;;;;;;14.60;4.25;;;;;;;-146.27;75.86;43105.13;5457771;26;20439;-67
2024/04/12 07:20:40;;;;;;;10.20;4.47;;;;;;;-146.27;75.15;43037.50;5451095;26;19999;-68
2024/04/12 07:23:15;;;;;;;12.88;4.10;;;;;;;-146.27;75.04;43081.25;5452273;26;20044;-68
2024/04/12 07:25:45;;;;;;;11.57;3.75;;;;;;;-146.27;74.52;43134.94;5451938;26;19995;-69
2024/04/12 07:28:18;;;;;;;14.10;4.28;;;;;;;-146.27;73.51;43113.06;5451611;26;19995;-68
2024/04/12 07:30:44;;;;;;;8.02;3.60;;;;;;;-146.27;71.73;43230.44;5454161;26;20067;-68
2024/04/12 07:33:13;;;;;;;11.77;3.70;;;;;;;-146.27;70.89;43495.00;5451769;26;20043;-70
2024/04/12 07:35:48;;;;;;;7.32;3.78;;;;;;;-146.27;70.12;43516.88;5459998;26;20002;-67
2024/04/12 07:38:14;;;;;;;8.50;3.40;;;;;;;-146.27;69.61;43612.34;5488120;26;20009;-67
2024/04/12 07:40:43;;;;;;;6.93;3.58;;;;;;;-146.27;69.68;43634.25;5467849;26;20010;-69
2024/04/12 07:43:09;;;;;;;9.95;3.25;;;;;;;-146.27;69.41;43670.06;5460448;26;20457;-68
2024/04/12 07:45:38;;;;;;;8.10;3.50;;;;;;;-146.27;68.01;43741.66;5451198;26;19990;-71
2024/04/12 07:50:47;;;;;;;8.48;3.00;;;;;;;-146.27;66.88;43912.75;5485957;26;20453;-69
2024/04/12 07:53:21;;;;;;;9.10;2.75;;;;;;;-146.27;66.65;43920.72;5486481;26;19999;-68
2024/04/12 07:56:00;;;;;;;10.82;2.65;;;;;;;-146.27;65.56;43888.88;5453176;26;20015;-68
2024/04/12 07:58:27;;;;;;;9.88;3.53;;;;;;;-146.27;65.45;43948.56;5469957;26;19994;-68
2024/04/12 08:01:09;;;;;;;7.15;3.05;;;;;;;-146.27;65.56;43930.66;5474573;26;20011;-69
2024/04/12 08:03:39;;;;;;;9.13;3.30;;;;;;;-146.27;64.54;44040.09;5458860;26;19998;-69
2024/04/12 08:06:05;;;;;;;7.85;2.90;;;;;;;-146.27;64.27;44042.06;5482255;26;20026;-68
2024/04/12 08:08:43;;;;;;;8.35;3.15;;;;;;;-146.27;64.87;44129.63;5484785;26;20452;-71
2024/04/12 08:11:12;;;;;;;6.78;3.22;;;;;;;-146.27;65.17;44153.50;5469678;26;19990;-69
2024/04/12 08:13:44;;;;;;;8.95;4.65;;;;;;;-146.27;64.32;44111.72;5487388;26;19994;-68
2024/04/12 08:16:14;;;;;;;5.72;2.47;;;;;;;-146.27;64.18;44119.66;5487825;26;20086;-68
2024/04/12 08:18:46;;;;;;;4.30;2.63;;;;;;;-146.27;64.64;44225.13;5487521;26;20017;-68
2024/04/12 08:21:12;;;;;;;4.75;2.38;;;;;;;-146.27;64.86;44131.59;5484357;26;20002;-68
2024/04/12 08:23:43;;;;;;;7.80;2.50;;;;;;;-146.27;65.59;44185.31;5487323;26;19998;-68
2024/04/12 08:26:10;;;;;;;5.75;2.35;;;;;;;-146.27;65.47;44153.50;5470993;26;19994;-68
2024/04/12 08:28:43;;;;;;;6.50;2.10;;;;;;;-146.27;65.04;44075.91;5470551;26;19995;-69
2024/04/12 08:31:10;;;;;;;;;;;;;;;-146.27;64.73;44115.69;5475912;26;20010;-68
2024/04/12 08:33:45;;;;;;;7.28;2.45;;;;;;;-146.27;65.10;44109.72;5487126;26;19923;-68
2024/04/12 08:36:14;;;;;;;4.78;2.08;;;;;;;-146.27;65.03;44107.72;5473884;26;20151;-68
2024/04/12 08:39:11;;;;;;;7.22;2.33;;;;;;;-146.27;64.53;44103.75;5487455;26;19990;-68
2024/04/12 08:41:38;;;;;;;7.07;2.08;;;;;;;-146.27;64.97;44099.78;5485447;26;20006;-68
2024/04/12 08:44:09;;;;;;;5.38;2.17;;;;;;;-146.27;64.82;44044.06;5486924;26;20024;-67
2024/04/12 08:46:36;;;;;;;4.75;1.92;;;;;;;-146.27;65.73;44111.72;5457620;26;20039;-69
2024/04/12 08:49:03;;;;;;;5.13;2.03;;;;;;;-146.27;64.21;43970.47;5484614;26;20005;-69
2024/04/12 08:51:33;;;;;;;5.75;2.10;;;;;;;-146.27;64.11;44028.16;5482103;26;19990;-70
2024/04/12 08:54:05;;;;;;;6.25;1.70;;;;;;;-146.27;63.82;43902.81;5458809;26;19995;-69
2024/04/12 08:56:30;;;;;;;4.05;1.92;;;;;;;-146.27;63.66;44012.22;5469807;26;20058;-69
2024/04/12 08:58:59;;;;;;;7.97;1.63;;;;;;;-146.27;63.40;43984.38;5458127;26;19995;-68
2024/04/12 09:01:26;;;;;;;4.13;1.38;;;;;;;-146.27;63.11;44004.28;5469478;26;20067;-68
2024/04/12 09:04:04;;;;;;;3.42;1.42;;;;;;;-146.27;62.48;43906.78;5487274;26;19994;-68
2024/04/12 09:06:35;;;;;;;6.72;1.88;;;;;;;-146.27;63.08;44024.16;5481353;26;19998;-69
2024/04/12 09:09:02;;;;;;;5.15;1.73;;;;;;;-146.27;61.97;44008.25;5482036;26;20438;-69
2024/04/12 09:11:31;;;;;;;2.50;1.02;;;;;;;-146.27;61.76;44028.16;5472720;26;20010;-69
2024/04/12 09:14:09;;;;;;;3.05;1.20;;;;;;;-146.27;62.08;44115.69;5458216;26;19994;-67
2024/04/12 09:16:48;;;;;;;3.08;1.10;;;;;;;-146.27;62.34;44179.34;5473313;26;20015;-69
2024/04/12 09:19:14;;;;;;;7.40;1.05;;;;;;;-146.27;61.72;44085.84;5487294;26;20419;-69
2024/04/12 09:21:51;;;;;;;8.57;1.52;;;;;;;-146.27;60.56;43980.41;5476835;26;20031;-69
2024/04/12 09:24:21;;;;;;;3.90;1.02;;;;;;;-146.27;59.74;44046.06;5475727;26;19998;-67
2024/04/12 09:26:58;;;;;;;6.47;1.30;;;;;;;-146.27;59.92;44048.03;5471363;26;20454;-67
2024/04/12 09:29:27;;;;;;;4.10;1.27;;;;;;;-146.27;59.28;44083.84;5479237;26;20002;-68
2024/04/12 09:34:55;;;;;;;5.15;1.15;;;;;;;-146.27;59.89;44075.91;5477518;26;20008;-68
2024/04/12 09:42:44;;;;;;;7.30;1.40;;;;;;;-146.27;59.32;43976.41;5468577;26;19999;-68
2024/04/12 09:45:16;;;;;;;2.95;1.80;;;;;;;-146.27;58.73;43978.41;5478679;26;20006;-67
2024/04/12 10:37:44;;;;;;;5.72;1.17;;;;;;;-146.27;56.95;44374.34;5473769;26;20522;-72
2024/04/12 10:40:11;;;;;;;4.43;1.38;;;;;;;-146.27;57.53;44350.47;5485547;26;20035;-74
2024/04/12 10:42:42;;;;;;;5.45;1.75;;;;;;;-146.27;56.33;44312.66;5477279;26;20005;-72
2024/04/12 10:45:08;;;;;;;6.57;1.60;;;;;;;-146.27;55.85;44310.69;5485486;26;20002;-73
2024/04/12 10:47:37;;;;;;;8.07;1.83;;;;;;;-146.27;55.59;44243.03;5484624;26;20009;-73
2024/04/12 10:50:04;;;;;;;7.82;1.55;;;;;;;-146.27;53.91;44129.63;5485240;26;20346;-72
2024/04/12 10:52:30;;;;;;;4.60;1.45;;;;;;;-146.27;52.85;44185.31;5484581;26;20042;-72
2024/04/12 10:54:56;;;;;;;4.07;1.58;;;;;;;-146.27;55.16;44256.94;5469621;26;19999;-73
2024/04/12 10:57:23;;;;;;;7.25;1.50;;;;;;;-146.27;53.46;44262.91;5452877;26;20446;-73
2024/04/12 10:59:51;;;;;;;7.13;1.40;;;;;;;-146.27;53.58;44235.06;5469062;26;20502;-68
2024/04/12 11:02:17;;;;;;;4.20;1.70;;;;;;;-146.27;53.82;44378.31;5484914;26;19994;-68
2024/04/12 11:07:27;;;;;;;5.30;1.40;;;;;;;-146.27;53.15;44262.91;5462429;26;20009;-69
2024/04/12 11:09:59;;;;;;;6.05;1.50;;;;;;;-146.27;52.60;44362.41;5461771;26;19994;-69
2024/04/12 11:12:40;;;;;;;4.57;1.55;;;;;;;-146.27;53.47;44390.25;5463988;26;19998;-69
2024/04/12 11:31:07;;;;;;;7.25;1.52;;;;;;;-146.27;53.14;44340.53;5484705;26;19994;-68
2024/04/12 11:31:47;;;;;;;6.22;1.15;;;;;;;-146.27;51.15;44274.84;5483897;26;20074;-67
2024/04/12 11:34:17;;;;;;;3.13;1.05;;;;;;;-146.27;50.46;44298.75;5482748;26;20347;-68
2024/04/12 11:36:44;;;;;;;4.20;1.10;;;;;;;-146.27;50.13;44250.97;5479598;26;20335;-69
2024/04/12 11:39:23;;;;;;;5.15;1.33;;;;;;;-146.27;49.90;44372.34;5483795;26;19998;-68
2024/04/12 11:41:49;;;;;;;4.55;1.15;;;;;;;-146.27;49.43;44328.59;5454893;26;20334;-69
2024/04/12 11:44:17;;;;;;;5.78;1.05;;;;;;;-146.27;50.74;44473.84;5476279;26;20014;-69
2024/04/12 11:46:46;;;;;;;6.03;1.10;;;;;;;-146.27;49.75;44453.94;5468437;26;19994;-69
2024/04/12 11:49:12;;;;;;;2.22;0.98;;;;;;;-146.27;49.77;44330.56;5483260;26;20067;-67
2024/04/12 11:51:39;;;;;;;5.90;1.20;;;;;;;-146.27;48.65;44318.63;5478941;26;20745;-69
2024/04/12 11:54:05;;;;;;;3.85;1.10;;;;;;;-146.27;48.37;44352.47;5481494;26;20016;-67
2024/04/12 11:56:34;;;;;;;1.52;0.80;;;;;;;-146.27;48.36;44326.59;5484373;26;20002;-67
2024/04/12 11:59:00;;;;;;;3.83;0.90;;;;;;;-146.27;47.22;44495.72;5473997;26;20015;-68
2024/04/12 12:01:28;;;;;;;3.47;0.85;;;;;;;-146.27;46.22;44457.91;5462693;26;20050;-68
2024/04/12 12:03:54;;;;;;;7.07;1.02;;;;;;;-146.27;46.16;44517.59;5455743;26;20006;-68
2024/04/12 12:06:22;;;;;;;1.55;0.77;;;;;;;-146.27;46.64;44635.00;5475437;26;19994;-68
2024/04/12 12:08:57;;;;;;;2.65;0.75;;;;;;;-146.27;46.61;44481.78;5464491;26;20020;-69
2024/04/12 12:11:24;;;;;;;5.07;0.80;;;;;;;-146.27;45.48;44549.44;5486544;26;20013;-68
2024/04/12 12:13:49;;;;;;;3.85;1.08;;;;;;;-146.27;44.75;44640.97;5451547;26;20010;-68
2024/04/12 12:16:15;;;;;;;1.80;0.73;;;;;;;-146.27;44.96;44768.31;5463805;26;19998;-67
2024/04/12 12:18:44;;;;;;;2.13;0.60;;;;;;;-146.27;44.52;44947.41;5487332;26;20483;-67
2024/04/12 12:21:14;;;;;;;1.58;0.60;;;;;;;-146.27;44.53;44925.53;5485350;26;20028;-68
2024/04/12 12:23:39;;;;;;;1.70;0.75;;;;;;;-146.27;44.49;45015.09;5480983;26;20704;-66
2024/04/12 12:26:08;;;;;;;4.22;0.70;;;;;;;-146.27;45.19;45098.66;5469728;26;20075;-68
2024/04/12 12:28:33;;;;;;;4.72;0.90;;;;;;;-146.27;44.88;44963.34;5476247;26;20009;-69
2024/04/12 12:31:00;;;;;;;5.05;1.02;;;;;;;-146.27;44.07;44927.53;5486492;26;19998;-67
2024/04/12 12:33:31;;;;;;;1.35;0.60;;;;;;;-146.27;43.80;44861.84;5486947;26;20026;-68
2024/04/12 12:35:57;;;;;;;2.30;0.75;;;;;;;-146.27;44.48;45031.00;5467240;26;20013;-67
2024/04/12 12:38:22;;;;;;;3.00;0.52;;;;;;;-146.27;45.12;45062.84;5465669;26;20370;-68
2024/04/12 12:40:47;;;;;;;3.10;0.75;;;;;;;-146.27;45.67;45038.97;5469176;26;19998;-67
2024/04/12 12:43:13;;;;;;;1.33;0.70;;;;;;;-146.27;45.93;45076.78;5484956;26;19994;-68